sensor_id;sensor_type;location;lat;lon;timestamp;temperature;humidity
25951;DHT22;13748;52.240;6.002;2023-07-31T00:00:14;16.10;99.90
25951;DHT22;13748;52.240;6.002;2023-07-31T00:02:41;16.00;99.90
25951;DHT22;13748;52.240;6.002;2023-07-31T00:05:09;16.00;99.90
25951;DHT22;13748;52.240;6.002;2023-07-31T00:07:36;16.00;99.90
25951;DHT22;13748;52.240;6.002;2023-07-31T00:10:03;16.10;99.90
25951;DHT22;13748;52.240;6.002;2023-07-31T00:12:30;16.10;99.90
25951;DHT22;13748;52.240;6.002;2023-07-31T00:14:57;16.20;99.90
25951;DHT22;13748;52.240;6.002;2023-07-31T00:17:24;16.10;99.90
25951;DHT22;13748;52.240;6.002;2023-07-31T00:19:51;16.10;99.90
25951;DHT22;13748;52.240;6.002;2023-07-31T00:22:18;16.20;99.90
25951;DHT22;13748;52.240;6.002;2023-07-31T00:24:45;16.00;99.90
25951;DHT22;13748;52.240;6.002;2023-07-31T00:27:12;16.10;99.90
25951;DHT22;13748;52.240;6.002;2023-07-31T00:29:39;16.10;99.90
25951;DHT22;13748;52.240;6.002;2023-07-31T00:32:06;16.10;99.90
25951;DHT22;13748;52.240;6.002;2023-07-31T00:34:33;16.10;99.90
25951;DHT22;13748;52.240;6.002;2023-07-31T00:37:00;16.10;99.90
25951;DHT22;13748;52.240;6.002;2023-07-31T00:39:27;16.20;99.90
25951;DHT22;13748;52.240;6.002;2023-07-31T00:41:55;16.20;99.90
25951;DHT22;13748;52.240;6.002;2023-07-31T00:44:22;16.10;99.90
25951;DHT22;13748;52.240;6.002;2023-07-31T00:46:49;16.10;99.90
25951;DHT22;13748;52.240;6.002;2023-07-31T00:49:17;16.10;99.90
25951;DHT22;13748;52.240;6.002;2023-07-31T00:51:45;16.10;99.90
25951;DHT22;13748;52.240;6.002;2023-07-31T00:54:16;16.20;99.90
25951;DHT22;13748;52.240;6.002;2023-07-31T00:56:45;16.20;99.90
25951;DHT22;13748;52.240;6.002;2023-07-31T00:59:12;16.20;99.90
25951;DHT22;13748;52.240;6.002;2023-07-31T01:01:40;16.20;99.90
25951;DHT22;13748;52.240;6.002;2023-07-31T01:04:07;16.20;99.90
25951;DHT22;13748;52.240;6.002;2023-07-31T01:09:44;16.20;99.90
25951;DHT22;13748;52.240;6.002;2023-07-31T01:12:16;16.20;99.90
25951;DHT22;13748;52.240;6.002;2023-07-31T01:15:02;16.30;99.90
25951;DHT22;13748;52.240;6.002;2023-07-31T01:17:30;16.20;99.90
25951;DHT22;13748;52.240;6.002;2023-07-31T01:20:00;16.20;99.90
25951;DHT22;13748;52.240;6.002;2023-07-31T01:26:03;16.30;99.90
25951;DHT22;13748;52.240;6.002;2023-07-31T01:28:46;16.40;99.90
25951;DHT22;13748;52.240;6.002;2023-07-31T01:31:17;16.40;99.90
25951;DHT22;13748;52.240;6.002;2023-07-31T01:33:45;16.40;99.90
25951;DHT22;13748;52.240;6.002;2023-07-31T01:36:12;16.50;99.90
25951;DHT22;13748;52.240;6.002;2023-07-31T01:38:40;16.50;99.90
25951;DHT22;13748;52.240;6.002;2023-07-31T01:41:06;16.50;99.90
25951;DHT22;13748;52.240;6.002;2023-07-31T01:43:33;16.60;99.90
25951;DHT22;13748;52.240;6.002;2023-07-31T01:46:00;16.50;99.90
25951;DHT22;13748;52.240;6.002;2023-07-31T01:48:27;16.60;99.90
25951;DHT22;13748;52.240;6.002;2023-07-31T01:50:54;16.50;99.90
25951;DHT22;13748;52.240;6.002;2023-07-31T01:53:21;16.50;99.90
25951;DHT22;13748;52.240;6.002;2023-07-31T01:55:47;16.40;99.90
25951;DHT22;13748;52.240;6.002;2023-07-31T01:58:14;16.40;99.90
25951;DHT22;13748;52.240;6.002;2023-07-31T02:00:41;16.40;99.90
25951;DHT22;13748;52.240;6.002;2023-07-31T02:03:09;16.40;99.90
25951;DHT22;13748;52.240;6.002;2023-07-31T02:05:36;16.40;99.90
25951;DHT22;13748;52.240;6.002;2023-07-31T02:08:10;16.30;99.90
25951;DHT22;13748;52.240;6.002;2023-07-31T02:10:37;16.30;99.90
25951;DHT22;13748;52.240;6.002;2023-07-31T02:13:04;16.40;99.90
25951;DHT22;13748;52.240;6.002;2023-07-31T02:15:31;16.40;99.90
25951;DHT22;13748;52.240;6.002;2023-07-31T02:17:58;16.40;99.90
25951;DHT22;13748;52.240;6.002;2023-07-31T02:20:28;16.40;99.90
25951;DHT22;13748;52.240;6.002;2023-07-31T02:22:55;16.50;99.90
25951;DHT22;13748;52.240;6.002;2023-07-31T02:25:23;16.50;99.90
25951;DHT22;13748;52.240;6.002;2023-07-31T02:27:50;16.50;99.90
25951;DHT22;13748;52.240;6.002;2023-07-31T02:30:17;16.60;99.90
25951;DHT22;13748;52.240;6.002;2023-07-31T02:32:44;16.50;99.90
25951;DHT22;13748;52.240;6.002;2023-07-31T02:35:11;16.60;99.90
25951;DHT22;13748;52.240;6.002;2023-07-31T02:37:42;16.50;99.90
25951;DHT22;13748;52.240;6.002;2023-07-31T02:40:10;16.60;99.90
25951;DHT22;13748;52.240;6.002;2023-07-31T02:42:37;16.60;99.90
25951;DHT22;13748;52.240;6.002;2023-07-31T02:45:04;16.60;99.90
25951;DHT22;13748;52.240;6.002;2023-07-31T02:47:31;16.60;99.90
25951;DHT22;13748;52.240;6.002;2023-07-31T02:49:58;16.60;99.90
25951;DHT22;13748;52.240;6.002;2023-07-31T02:52:26;16.60;99.90
25951;DHT22;13748;52.240;6.002;2023-07-31T02:54:53;16.70;99.90
25951;DHT22;13748;52.240;6.002;2023-07-31T02:57:20;16.70;99.90
25951;DHT22;13748;52.240;6.002;2023-07-31T02:59:47;16.80;99.90
25951;DHT22;13748;52.240;6.002;2023-07-31T03:02:17;16.80;99.90
25951;DHT22;13748;52.240;6.002;2023-07-31T03:04:44;16.80;99.90
25951;DHT22;13748;52.240;6.002;2023-07-31T03:07:11;16.80;99.90
25951;DHT22;13748;52.240;6.002;2023-07-31T03:09:39;16.80;99.90
25951;DHT22;13748;52.240;6.002;2023-07-31T03:12:07;16.80;99.90
25951;DHT22;13748;52.240;6.002;2023-07-31T03:14:34;16.90;99.90
25951;DHT22;13748;52.240;6.002;2023-07-31T03:17:01;16.90;99.90
25951;DHT22;13748;52.240;6.002;2023-07-31T03:19:30;16.90;99.90
25951;DHT22;13748;52.240;6.002;2023-07-31T03:21:59;17.00;99.90
25951;DHT22;13748;52.240;6.002;2023-07-31T03:24:26;16.90;99.90
25951;DHT22;13748;52.240;6.002;2023-07-31T03:26:53;16.90;99.90
25951;DHT22;13748;52.240;6.002;2023-07-31T03:29:20;16.90;99.90
25951;DHT22;13748;52.240;6.002;2023-07-31T03:31:51;16.90;99.90
25951;DHT22;13748;52.240;6.002;2023-07-31T03:34:18;17.00;99.90
25951;DHT22;13748;52.240;6.002;2023-07-31T03:36:48;16.90;99.90
25951;DHT22;13748;52.240;6.002;2023-07-31T03:39:25;16.90;99.90
25951;DHT22;13748;52.240;6.002;2023-07-31T03:41:54;17.10;99.90
25951;DHT22;13748;52.240;6.002;2023-07-31T03:44:25;16.90;99.90
25951;DHT22;13748;52.240;6.002;2023-07-31T03:46:56;16.70;99.90
25951;DHT22;13748;52.240;6.002;2023-07-31T03:49:24;16.90;99.90
25951;DHT22;13748;52.240;6.002;2023-07-31T03:51:55;16.90;99.90
25951;DHT22;13748;52.240;6.002;2023-07-31T03:54:25;16.90;99.90
25951;DHT22;13748;52.240;6.002;2023-07-31T03:56:59;16.90;99.90
25951;DHT22;13748;52.240;6.002;2023-07-31T03:59:28;16.90;99.90
25951;DHT22;13748;52.240;6.002;2023-07-31T04:02:02;16.90;99.90
25951;DHT22;13748;52.240;6.002;2023-07-31T04:04:30;16.90;99.90
25951;DHT22;13748;52.240;6.002;2023-07-31T04:07:02;16.90;99.90
25951;DHT22;13748;52.240;6.002;2023-07-31T04:09:38;16.90;99.90
25951;DHT22;13748;52.240;6.002;2023-07-31T04:12:06;16.90;99.90
25951;DHT22;13748;52.240;6.002;2023-07-31T04:14:38;16.90;99.90
25951;DHT22;13748;52.240;6.002;2023-07-31T04:17:14;16.90;99.90
25951;DHT22;13748;52.240;6.002;2023-07-31T04:19:59;16.80;99.90
25951;DHT22;13748;52.240;6.002;2023-07-31T04:22:32;16.70;99.90
25951;DHT22;13748;52.240;6.002;2023-07-31T04:25:07;16.80;99.90
25951;DHT22;13748;52.240;6.002;2023-07-31T04:27:40;16.80;99.90
25951;DHT22;13748;52.240;6.002;2023-07-31T04:30:42;16.80;99.90
25951;DHT22;13748;52.240;6.002;2023-07-31T04:33:32;16.70;99.90
25951;DHT22;13748;52.240;6.002;2023-07-31T04:36:26;16.70;99.90
25951;DHT22;13748;52.240;6.002;2023-07-31T04:39:05;16.80;99.90
25951;DHT22;13748;52.240;6.002;2023-07-31T04:41:34;16.80;99.90
25951;DHT22;13748;52.240;6.002;2023-07-31T04:44:03;16.80;99.90
25951;DHT22;13748;52.240;6.002;2023-07-31T04:47:16;16.70;99.90
25951;DHT22;13748;52.240;6.002;2023-07-31T04:50:21;16.70;99.90
25951;DHT22;13748;52.240;6.002;2023-07-31T04:52:57;16.70;99.90
25951;DHT22;13748;52.240;6.002;2023-07-31T04:55:25;16.70;99.90
25951;DHT22;13748;52.240;6.002;2023-07-31T04:57:54;16.60;99.90
25951;DHT22;13748;52.240;6.002;2023-07-31T05:00:22;16.60;99.90
25951;DHT22;13748;52.240;6.002;2023-07-31T05:03:12;16.60;99.90
25951;DHT22;13748;52.240;6.002;2023-07-31T05:06:16;16.70;99.90
25951;DHT22;13748;52.240;6.002;2023-07-31T05:08:57;16.70;99.90
25951;DHT22;13748;52.240;6.002;2023-07-31T05:11:32;16.90;99.90
25951;DHT22;13748;52.240;6.002;2023-07-31T05:14:31;16.70;99.90
25951;DHT22;13748;52.240;6.002;2023-07-31T05:21:34;16.70;99.90
25951;DHT22;13748;52.240;6.002;2023-07-31T05:24:42;16.80;99.90
25951;DHT22;13748;52.240;6.002;2023-07-31T05:27:43;16.80;99.90
25951;DHT22;13748;52.240;6.002;2023-07-31T05:31:03;16.80;99.90
25951;DHT22;13748;52.240;6.002;2023-07-31T05:33:42;16.70;99.90
25951;DHT22;13748;52.240;6.002;2023-07-31T05:39:57;16.70;99.90
25951;DHT22;13748;52.240;6.002;2023-07-31T05:42:55;16.70;99.90
25951;DHT22;13748;52.240;6.002;2023-07-31T05:45:49;16.60;99.90
25951;DHT22;13748;52.240;6.002;2023-07-31T05:52:23;16.60;99.90
25951;DHT22;13748;52.240;6.002;2023-07-31T06:19:16;16.60;99.90
25951;DHT22;13748;52.240;6.002;2023-07-31T06:22:19;16.60;99.90
25951;DHT22;13748;52.240;6.002;2023-07-31T06:34:52;16.70;99.90
25951;DHT22;13748;52.240;6.002;2023-07-31T06:37:40;16.80;99.90
25951;DHT22;13748;52.240;6.002;2023-07-31T06:40:13;16.80;99.90
25951;DHT22;13748;52.240;6.002;2023-07-31T06:42:59;16.80;99.90
25951;DHT22;13748;52.240;6.002;2023-07-31T06:45:40;16.90;99.90
25951;DHT22;13748;52.240;6.002;2023-07-31T06:48:26;16.90;99.90
25951;DHT22;13748;52.240;6.002;2023-07-31T06:50:58;17.00;99.90
25951;DHT22;13748;52.240;6.002;2023-07-31T06:53:45;17.00;99.90
25951;DHT22;13748;52.240;6.002;2023-07-31T06:56:34;17.10;99.90
25951;DHT22;13748;52.240;6.002;2023-07-31T06:59:50;17.00;99.90
25951;DHT22;13748;52.240;6.002;2023-07-31T07:03:09;17.00;99.90
25951;DHT22;13748;52.240;6.002;2023-07-31T07:06:32;17.10;99.90
25951;DHT22;13748;52.240;6.002;2023-07-31T07:09:15;17.10;99.90
25951;DHT22;13748;52.240;6.002;2023-07-31T07:12:18;17.10;99.90
25951;DHT22;13748;52.240;6.002;2023-07-31T07:14:54;17.20;99.90
25951;DHT22;13748;52.240;6.002;2023-07-31T07:20:53;17.30;99.90
25951;DHT22;13748;52.240;6.002;2023-07-31T07:23:42;17.30;99.90
25951;DHT22;13748;52.240;6.002;2023-07-31T07:26:38;17.40;99.90
25951;DHT22;13748;52.240;6.002;2023-07-31T07:29:14;17.50;99.90
25951;DHT22;13748;52.240;6.002;2023-07-31T07:32:28;17.40;99.90
25951;DHT22;13748;52.240;6.002;2023-07-31T07:38:33;17.60;99.90
25951;DHT22;13748;52.240;6.002;2023-07-31T07:41:57;17.50;99.90
25951;DHT22;13748;52.240;6.002;2023-07-31T07:44:58;17.60;99.90
25951;DHT22;13748;52.240;6.002;2023-07-31T07:47:50;17.60;99.90
25951;DHT22;13748;52.240;6.002;2023-07-31T07:50:41;17.70;99.90
25951;DHT22;13748;52.240;6.002;2023-07-31T07:53:11;17.60;99.90
25951;DHT22;13748;52.240;6.002;2023-07-31T07:56:20;17.60;99.90
25951;DHT22;13748;52.240;6.002;2023-07-31T07:59:04;17.70;99.90
25951;DHT22;13748;52.240;6.002;2023-07-31T08:02:13;17.60;99.90
25951;DHT22;13748;52.240;6.002;2023-07-31T08:04:54;17.70;99.90
25951;DHT22;13748;52.240;6.002;2023-07-31T08:07:46;17.70;99.90
25951;DHT22;13748;52.240;6.002;2023-07-31T08:10:28;17.70;99.90
25951;DHT22;13748;52.240;6.002;2023-07-31T08:13:30;17.80;99.90
25951;DHT22;13748;52.240;6.002;2023-07-31T08:16:22;18.00;99.90
25951;DHT22;13748;52.240;6.002;2023-07-31T08:18:53;17.90;99.90
25951;DHT22;13748;52.240;6.002;2023-07-31T08:21:29;17.90;99.90
25951;DHT22;13748;52.240;6.002;2023-07-31T08:24:00;17.90;99.90
25951;DHT22;13748;52.240;6.002;2023-07-31T08:26:43;17.80;99.90
25951;DHT22;13748;52.240;6.002;2023-07-31T08:29:25;17.90;99.90
25951;DHT22;13748;52.240;6.002;2023-07-31T08:31:58;17.90;99.90
25951;DHT22;13748;52.240;6.002;2023-07-31T08:34:26;18.00;99.90
25951;DHT22;13748;52.240;6.002;2023-07-31T08:36:58;17.90;99.90
25951;DHT22;13748;52.240;6.002;2023-07-31T08:39:48;18.00;99.90
25951;DHT22;13748;52.240;6.002;2023-07-31T08:42:52;18.10;99.90
25951;DHT22;13748;52.240;6.002;2023-07-31T08:45:21;18.10;99.90
25951;DHT22;13748;52.240;6.002;2023-07-31T08:47:59;18.20;99.90
25951;DHT22;13748;52.240;6.002;2023-07-31T08:50:44;18.30;99.90
25951;DHT22;13748;52.240;6.002;2023-07-31T08:56:32;18.30;99.90
25951;DHT22;13748;52.240;6.002;2023-07-31T08:59:19;18.20;99.90
25951;DHT22;13748;52.240;6.002;2023-07-31T09:01:55;18.30;99.90
25951;DHT22;13748;52.240;6.002;2023-07-31T09:05:24;18.30;99.90
25951;DHT22;13748;52.240;6.002;2023-07-31T09:08:19;18.40;99.90
25951;DHT22;13748;52.240;6.002;2023-07-31T09:11:00;18.40;99.90
25951;DHT22;13748;52.240;6.002;2023-07-31T09:13:35;18.40;99.90
25951;DHT22;13748;52.240;6.002;2023-07-31T09:16:30;18.50;99.90
25951;DHT22;13748;52.240;6.002;2023-07-31T09:19:02;18.40;99.90
25951;DHT22;13748;52.240;6.002;2023-07-31T09:21:58;18.50;99.90
25951;DHT22;13748;52.240;6.002;2023-07-31T09:24:33;18.50;99.90
25951;DHT22;13748;52.240;6.002;2023-07-31T09:27:24;18.50;99.90
25951;DHT22;13748;52.240;6.002;2023-07-31T09:30:05;18.50;99.90
25951;DHT22;13748;52.240;6.002;2023-07-31T09:33:03;18.40;99.90
25951;DHT22;13748;52.240;6.002;2023-07-31T09:35:50;18.40;99.90
25951;DHT22;13748;52.240;6.002;2023-07-31T09:38:37;18.40;99.90
25951;DHT22;13748;52.240;6.002;2023-07-31T09:44:40;18.50;99.90
25951;DHT22;13748;52.240;6.002;2023-07-31T09:50:47;18.50;99.90
25951;DHT22;13748;52.240;6.002;2023-07-31T09:53:28;18.50;99.90
25951;DHT22;13748;52.240;6.002;2023-07-31T09:56:02;18.70;99.90
25951;DHT22;13748;52.240;6.002;2023-07-31T09:58:42;18.70;99.90
25951;DHT22;13748;52.240;6.002;2023-07-31T10:01:20;18.80;99.90
25951;DHT22;13748;52.240;6.002;2023-07-31T10:04:17;18.70;99.90
25951;DHT22;13748;52.240;6.002;2023-07-31T10:07:04;18.70;99.90
25951;DHT22;13748;52.240;6.002;2023-07-31T10:09:48;18.70;99.90
25951;DHT22;13748;52.240;6.002;2023-07-31T10:13:26;18.60;99.90
25951;DHT22;13748;52.240;6.002;2023-07-31T10:16:12;18.60;99.90
25951;DHT22;13748;52.240;6.002;2023-07-31T10:18:56;18.70;99.90
25951;DHT22;13748;52.240;6.002;2023-07-31T10:21:27;18.70;99.90
25951;DHT22;13748;52.240;6.002;2023-07-31T10:24:11;18.70;99.90
25951;DHT22;13748;52.240;6.002;2023-07-31T10:26:39;18.80;99.90
25951;DHT22;13748;52.240;6.002;2023-07-31T10:29:13;18.90;99.90
25951;DHT22;13748;52.240;6.002;2023-07-31T10:32:06;19.00;99.90
25951;DHT22;13748;52.240;6.002;2023-07-31T10:34:41;19.00;99.90
25951;DHT22;13748;52.240;6.002;2023-07-31T10:37:29;19.00;99.90
25951;DHT22;13748;52.240;6.002;2023-07-31T10:40:24;19.00;99.90
25951;DHT22;13748;52.240;6.002;2023-07-31T10:42:58;19.00;99.90
25951;DHT22;13748;52.240;6.002;2023-07-31T10:45:35;19.10;99.90
25951;DHT22;13748;52.240;6.002;2023-07-31T10:48:16;19.00;99.90
25951;DHT22;13748;52.240;6.002;2023-07-31T10:50:50;19.10;99.90
25951;DHT22;13748;52.240;6.002;2023-07-31T10:53:28;19.20;99.90
25951;DHT22;13748;52.240;6.002;2023-07-31T10:56:02;19.10;99.90
25951;DHT22;13748;52.240;6.002;2023-07-31T11:01:06;19.10;99.90
25951;DHT22;13748;52.240;6.002;2023-07-31T11:03:45;19.10;99.90
25951;DHT22;13748;52.240;6.002;2023-07-31T11:06:16;19.20;99.90
25951;DHT22;13748;52.240;6.002;2023-07-31T11:08:47;19.30;99.90
25951;DHT22;13748;52.240;6.002;2023-07-31T11:11:19;19.60;99.90
25951;DHT22;13748;52.240;6.002;2023-07-31T11:13:52;19.50;99.90
25951;DHT22;13748;52.240;6.002;2023-07-31T11:16:22;19.50;99.90
25951;DHT22;13748;52.240;6.002;2023-07-31T11:18:50;19.50;99.90
25951;DHT22;13748;52.240;6.002;2023-07-31T11:21:23;19.40;99.90
25951;DHT22;13748;52.240;6.002;2023-07-31T11:23:56;19.50;99.90
25951;DHT22;13748;52.240;6.002;2023-07-31T11:26:24;19.50;99.90
25951;DHT22;13748;52.240;6.002;2023-07-31T11:28:51;19.70;99.90
25951;DHT22;13748;52.240;6.002;2023-07-31T11:31:18;19.60;99.90
25951;DHT22;13748;52.240;6.002;2023-07-31T11:33:45;19.70;99.90
25951;DHT22;13748;52.240;6.002;2023-07-31T11:36:16;19.80;99.90
25951;DHT22;13748;52.240;6.002;2023-07-31T11:38:44;19.90;99.90
25951;DHT22;13748;52.240;6.002;2023-07-31T11:41:10;19.70;99.90
25951;DHT22;13748;52.240;6.002;2023-07-31T11:43:40;19.80;99.90
25951;DHT22;13748;52.240;6.002;2023-07-31T11:46:08;19.90;99.90
25951;DHT22;13748;52.240;6.002;2023-07-31T11:48:37;19.90;99.90
25951;DHT22;13748;52.240;6.002;2023-07-31T11:51:05;20.00;99.90
25951;DHT22;13748;52.240;6.002;2023-07-31T11:53:41;20.10;99.90
25951;DHT22;13748;52.240;6.002;2023-07-31T11:56:13;20.20;99.90
25951;DHT22;13748;52.240;6.002;2023-07-31T11:58:41;20.10;99.90
25951;DHT22;13748;52.240;6.002;2023-07-31T12:01:08;20.10;99.90
25951;DHT22;13748;52.240;6.002;2023-07-31T12:03:36;20.00;99.90
25951;DHT22;13748;52.240;6.002;2023-07-31T12:06:03;20.00;99.90
25951;DHT22;13748;52.240;6.002;2023-07-31T12:08:30;19.90;99.90
25951;DHT22;13748;52.240;6.002;2023-07-31T12:11:10;19.80;99.90
25951;DHT22;13748;52.240;6.002;2023-07-31T12:13:37;19.90;99.90
25951;DHT22;13748;52.240;6.002;2023-07-31T12:16:04;19.80;99.90
25951;DHT22;13748;52.240;6.002;2023-07-31T12:18:38;19.80;99.90
25951;DHT22;13748;52.240;6.002;2023-07-31T12:21:07;19.70;99.90
25951;DHT22;13748;52.240;6.002;2023-07-31T12:23:36;19.60;99.90
25951;DHT22;13748;52.240;6.002;2023-07-31T12:26:11;19.60;99.90
25951;DHT22;13748;52.240;6.002;2023-07-31T12:28:46;19.50;99.90
25951;DHT22;13748;52.240;6.002;2023-07-31T12:31:19;19.60;99.90
25951;DHT22;13748;52.240;6.002;2023-07-31T12:33:50;19.60;99.90
25951;DHT22;13748;52.240;6.002;2023-07-31T12:36:22;19.50;99.90
25951;DHT22;13748;52.240;6.002;2023-07-31T12:38:50;19.60;99.90
25951;DHT22;13748;52.240;6.002;2023-07-31T12:41:31;19.70;99.90
25951;DHT22;13748;52.240;6.002;2023-07-31T12:44:07;19.70;99.90
25951;DHT22;13748;52.240;6.002;2023-07-31T12:46:37;19.80;99.90
25951;DHT22;13748;52.240;6.002;2023-07-31T12:49:06;19.80;99.90
25951;DHT22;13748;52.240;6.002;2023-07-31T12:51:35;19.90;99.90
25951;DHT22;13748;52.240;6.002;2023-07-31T12:54:02;19.90;99.90
25951;DHT22;13748;52.240;6.002;2023-07-31T12:56:29;20.00;99.90
25951;DHT22;13748;52.240;6.002;2023-07-31T12:58:56;20.10;99.90
25951;DHT22;13748;52.240;6.002;2023-07-31T13:01:23;20.00;99.90
25951;DHT22;13748;52.240;6.002;2023-07-31T13:03:50;20.20;99.90
25951;DHT22;13748;52.240;6.002;2023-07-31T13:06:17;20.30;99.90
25951;DHT22;13748;52.240;6.002;2023-07-31T13:08:44;20.30;99.90
25951;DHT22;13748;52.240;6.002;2023-07-31T13:11:11;20.20;99.90
25951;DHT22;13748;52.240;6.002;2023-07-31T13:13:38;20.10;99.90
25951;DHT22;13748;52.240;6.002;2023-07-31T13:16:05;20.00;99.90
25951;DHT22;13748;52.240;6.002;2023-07-31T13:18:32;19.90;99.90
25951;DHT22;13748;52.240;6.002;2023-07-31T13:21:01;19.90;99.90
25951;DHT22;13748;52.240;6.002;2023-07-31T13:23:27;20.00;99.90
25951;DHT22;13748;52.240;6.002;2023-07-31T13:25:54;20.10;99.90
25951;DHT22;13748;52.240;6.002;2023-07-31T13:28:21;20.20;99.90
25951;DHT22;13748;52.240;6.002;2023-07-31T13:30:48;20.40;99.90
25951;DHT22;13748;52.240;6.002;2023-07-31T13:33:15;20.50;99.90
25951;DHT22;13748;52.240;6.002;2023-07-31T13:36:02;20.50;99.90
25951;DHT22;13748;52.240;6.002;2023-07-31T13:38:29;20.60;99.90
25951;DHT22;13748;52.240;6.002;2023-07-31T13:40:55;20.80;99.90
25951;DHT22;13748;52.240;6.002;2023-07-31T13:43:23;20.80;99.90
25951;DHT22;13748;52.240;6.002;2023-07-31T13:45:52;20.80;99.90
25951;DHT22;13748;52.240;6.002;2023-07-31T13:48:24;20.70;99.90
25951;DHT22;13748;52.240;6.002;2023-07-31T13:50:54;20.70;99.90
25951;DHT22;13748;52.240;6.002;2023-07-31T13:53:21;20.50;99.90
25951;DHT22;13748;52.240;6.002;2023-07-31T13:55:48;20.50;99.90
25951;DHT22;13748;52.240;6.002;2023-07-31T13:58:15;20.60;99.90
25951;DHT22;13748;52.240;6.002;2023-07-31T14:00:42;20.60;99.90
25951;DHT22;13748;52.240;6.002;2023-07-31T14:03:09;20.70;99.90
25951;DHT22;13748;52.240;6.002;2023-07-31T14:05:36;20.60;99.90
25951;DHT22;13748;52.240;6.002;2023-07-31T14:08:04;20.60;99.90
25951;DHT22;13748;52.240;6.002;2023-07-31T14:10:30;20.70;99.90
25951;DHT22;13748;52.240;6.002;2023-07-31T14:12:57;20.70;99.90
25951;DHT22;13748;52.240;6.002;2023-07-31T14:15:24;20.60;99.90
25951;DHT22;13748;52.240;6.002;2023-07-31T14:17:54;20.50;99.90
25951;DHT22;13748;52.240;6.002;2023-07-31T14:20:27;20.60;99.90
25951;DHT22;13748;52.240;6.002;2023-07-31T14:22:54;20.50;99.90
25951;DHT22;13748;52.240;6.002;2023-07-31T14:25:22;20.40;99.90
25951;DHT22;13748;52.240;6.002;2023-07-31T14:27:49;20.30;99.90
25951;DHT22;13748;52.240;6.002;2023-07-31T14:30:16;20.20;99.90
25951;DHT22;13748;52.240;6.002;2023-07-31T14:32:44;20.10;99.90
25951;DHT22;13748;52.240;6.002;2023-07-31T14:35:11;19.90;99.90
25951;DHT22;13748;52.240;6.002;2023-07-31T14:37:44;19.90;99.90
25951;DHT22;13748;52.240;6.002;2023-07-31T14:40:14;19.70;99.90
25951;DHT22;13748;52.240;6.002;2023-07-31T14:42:42;19.60;99.90
25951;DHT22;13748;52.240;6.002;2023-07-31T14:45:09;19.40;99.90
25951;DHT22;13748;52.240;6.002;2023-07-31T14:47:37;19.40;99.90
25951;DHT22;13748;52.240;6.002;2023-07-31T14:50:04;19.30;99.90
25951;DHT22;13748;52.240;6.002;2023-07-31T14:52:31;19.30;99.90
25951;DHT22;13748;52.240;6.002;2023-07-31T14:54:58;19.30;99.90
25951;DHT22;13748;52.240;6.002;2023-07-31T14:57:25;19.30;99.90
25951;DHT22;13748;52.240;6.002;2023-07-31T14:59:53;19.30;99.90
25951;DHT22;13748;52.240;6.002;2023-07-31T15:02:20;19.30;99.90
25951;DHT22;13748;52.240;6.002;2023-07-31T15:04:47;19.30;99.90
25951;DHT22;13748;52.240;6.002;2023-07-31T15:07:17;19.20;99.90
25951;DHT22;13748;52.240;6.002;2023-07-31T15:09:44;19.20;99.90
25951;DHT22;13748;52.240;6.002;2023-07-31T15:12:11;19.40;99.90
25951;DHT22;13748;52.240;6.002;2023-07-31T15:14:38;19.40;99.90
25951;DHT22;13748;52.240;6.002;2023-07-31T15:17:05;19.40;99.90
25951;DHT22;13748;52.240;6.002;2023-07-31T15:19:31;19.40;99.90
25951;DHT22;13748;52.240;6.002;2023-07-31T15:22:02;19.40;99.90
25951;DHT22;13748;52.240;6.002;2023-07-31T15:24:41;19.40;99.90
25951;DHT22;13748;52.240;6.002;2023-07-31T15:27:10;19.30;99.90
25951;DHT22;13748;52.240;6.002;2023-07-31T15:29:37;19.30;99.90
25951;DHT22;13748;52.240;6.002;2023-07-31T15:32:05;19.20;99.90
25951;DHT22;13748;52.240;6.002;2023-07-31T15:34:33;19.30;99.90
25951;DHT22;13748;52.240;6.002;2023-07-31T15:37:00;19.30;99.90
25951;DHT22;13748;52.240;6.002;2023-07-31T15:39:27;19.30;99.90
25951;DHT22;13748;52.240;6.002;2023-07-31T15:41:54;19.30;99.90
25951;DHT22;13748;52.240;6.002;2023-07-31T15:44:21;19.20;99.90
25951;DHT22;13748;52.240;6.002;2023-07-31T15:46:48;19.20;99.90
25951;DHT22;13748;52.240;6.002;2023-07-31T15:49:15;19.20;99.90
25951;DHT22;13748;52.240;6.002;2023-07-31T15:51:42;19.10;99.90
25951;DHT22;13748;52.240;6.002;2023-07-31T15:54:09;19.30;99.90
25951;DHT22;13748;52.240;6.002;2023-07-31T15:56:36;19.20;99.90
25951;DHT22;13748;52.240;6.002;2023-07-31T15:59:03;19.20;99.90
25951;DHT22;13748;52.240;6.002;2023-07-31T16:01:31;19.20;99.90
25951;DHT22;13748;52.240;6.002;2023-07-31T16:03:58;19.20;99.90
25951;DHT22;13748;52.240;6.002;2023-07-31T16:06:25;19.20;99.90
25951;DHT22;13748;52.240;6.002;2023-07-31T16:08:51;19.30;99.90
25951;DHT22;13748;52.240;6.002;2023-07-31T16:11:21;19.30;99.90
25951;DHT22;13748;52.240;6.002;2023-07-31T16:13:48;19.30;99.90
25951;DHT22;13748;52.240;6.002;2023-07-31T16:16:15;19.20;99.90
25951;DHT22;13748;52.240;6.002;2023-07-31T16:18:42;19.20;99.90
25951;DHT22;13748;52.240;6.002;2023-07-31T16:21:09;19.20;99.90
25951;DHT22;13748;52.240;6.002;2023-07-31T16:23:36;19.20;99.90
25951;DHT22;13748;52.240;6.002;2023-07-31T16:26:02;19.20;99.90
25951;DHT22;13748;52.240;6.002;2023-07-31T16:28:29;19.10;99.90
25951;DHT22;13748;52.240;6.002;2023-07-31T16:30:56;19.10;99.90
25951;DHT22;13748;52.240;6.002;2023-07-31T16:33:23;19.20;99.90
25951;DHT22;13748;52.240;6.002;2023-07-31T16:35:50;18.90;99.90
25951;DHT22;13748;52.240;6.002;2023-07-31T16:38:17;19.00;99.90
25951;DHT22;13748;52.240;6.002;2023-07-31T16:40:44;19.00;99.90
25951;DHT22;13748;52.240;6.002;2023-07-31T16:43:13;18.90;99.90
25951;DHT22;13748;52.240;6.002;2023-07-31T16:45:39;18.90;99.90
25951;DHT22;13748;52.240;6.002;2023-07-31T16:48:06;18.90;99.90
25951;DHT22;13748;52.240;6.002;2023-07-31T16:50:33;18.90;99.90
25951;DHT22;13748;52.240;6.002;2023-07-31T16:53:00;18.90;99.90
25951;DHT22;13748;52.240;6.002;2023-07-31T16:55:27;18.90;99.90
25951;DHT22;13748;52.240;6.002;2023-07-31T16:57:55;18.90;99.90
25951;DHT22;13748;52.240;6.002;2023-07-31T17:00:23;18.90;99.90
25951;DHT22;13748;52.240;6.002;2023-07-31T17:03:02;18.80;99.90
25951;DHT22;13748;52.240;6.002;2023-07-31T17:05:29;18.90;99.90
25951;DHT22;13748;52.240;6.002;2023-07-31T17:07:56;18.90;99.90
25951;DHT22;13748;52.240;6.002;2023-07-31T17:10:23;18.90;99.90
25951;DHT22;13748;52.240;6.002;2023-07-31T17:12:50;18.90;99.90
25951;DHT22;13748;52.240;6.002;2023-07-31T17:15:17;18.90;99.90
25951;DHT22;13748;52.240;6.002;2023-07-31T17:17:43;18.90;99.90
25951;DHT22;13748;52.240;6.002;2023-07-31T17:20:11;18.90;99.90
25951;DHT22;13748;52.240;6.002;2023-07-31T17:22:38;18.90;99.90
25951;DHT22;13748;52.240;6.002;2023-07-31T17:25:16;18.80;99.90